createdAt,value
2019-03-18T00:00:37.261Z,89.54
2019-03-18T00:01:37.198Z,89.24
2019-03-18T00:02:37.193Z,88.73
2019-03-18T00:03:37.187Z,88.39
2019-03-18T00:04:37.321Z,87.90
2019-03-18T00:05:37.257Z,87.69
2019-03-18T00:06:37.268Z,87.32
2019-03-18T00:07:37.227Z,87.29
2019-03-18T00:08:37.187Z,87.21
2019-03-18T00:09:37.264Z,87.08
2019-03-18T00:10:37.199Z,87.18
2019-03-18T00:11:37.270Z,87.24
2019-03-18T00:12:37.269Z,87.18
2019-03-18T00:13:37.205Z,87.10
2019-03-18T00:14:37.193Z,86.89
2019-03-18T00:15:37.192Z,86.87
2019-03-18T00:16:37.260Z,86.76
2019-03-18T00:17:37.199Z,86.79
2019-03-18T00:18:37.256Z,86.81
2019-03-18T00:19:37.260Z,86.71
2019-03-18T00:20:37.187Z,86.60
2019-03-18T00:21:37.303Z,86.65
2019-03-18T00:22:37.194Z,86.73
2019-03-18T00:23:37.267Z,86.76
2019-03-18T00:24:37.261Z,87.05
2019-03-18T00:25:37.269Z,87.10
2019-03-18T00:26:37.193Z,87.21
2019-03-18T00:27:37.267Z,86.87
2019-03-18T00:28:37.267Z,86.63
2019-03-18T00:29:37.210Z,86.60
2019-03-18T00:30:37.265Z,86.41
2019-03-18T00:31:37.200Z,86.25
2019-03-18T00:32:37.200Z,86.22
2019-03-18T00:33:37.203Z,86.33
2019-03-18T00:34:37.273Z,86.60
2019-03-18T00:35:37.202Z,86.79
2019-03-18T00:36:37.198Z,87.10
2019-03-18T00:37:37.271Z,87.45
2019-03-18T00:38:37.219Z,87.85
2019-03-18T00:39:37.290Z,88.12
2019-03-18T00:40:37.287Z,88.62
2019-03-18T00:41:37.281Z,89.06
2019-03-18T00:42:37.225Z,89.19
2019-03-18T00:43:37.179Z,89.35
2019-03-18T00:44:37.295Z,89.54
2019-03-18T00:45:40.150Z,89.67
2019-03-18T00:46:37.293Z,89.91
2019-03-18T00:47:37.290Z,90.07
2019-03-18T00:48:37.226Z,89.94
2019-03-18T00:49:37.292Z,89.88
2019-03-18T00:50:37.223Z,89.67
2019-03-18T00:51:37.220Z,89.43
2019-03-18T00:52:37.291Z,89.48
2019-03-18T00:53:37.294Z,89.40
2019-03-18T00:54:37.295Z,89.51
2019-03-18T00:55:37.244Z,89.54
2019-03-18T00:56:37.295Z,89.75
2019-03-18T00:57:37.283Z,89.72
2019-03-18T00:58:37.237Z,89.88
2019-03-18T00:59:37.185Z,89.97
2019-03-18T01:00:37.193Z,89.91
2019-03-18T01:01:37.296Z,89.94
2019-03-18T01:02:37.312Z,90.09
2019-03-18T01:03:37.193Z,89.86
2019-03-18T01:04:37.299Z,89.64
2019-03-18T01:05:37.252Z,89.54
2019-03-18T01:06:37.239Z,89.54
2019-03-18T01:07:37.232Z,89.51
2019-03-18T01:08:37.302Z,89.51
2019-03-18T01:09:37.233Z,89.48
2019-03-18T01:10:37.309Z,89.40
2019-03-18T01:11:37.316Z,89.48
2019-03-18T01:12:37.305Z,89.40
2019-03-18T01:13:37.306Z,89.37
2019-03-18T01:14:37.235Z,89.45
2019-03-18T01:15:37.309Z,89.54
2019-03-18T01:16:37.321Z,89.72
2019-03-18T01:17:37.315Z,89.91
2019-03-18T01:18:37.315Z,89.99
2019-03-18T01:19:37.242Z,90.23
2019-03-18T01:20:37.252Z,90.53
2019-03-18T01:21:37.239Z,90.47
2019-03-18T01:22:37.325Z,90.53
2019-03-18T01:23:37.244Z,90.69
2019-03-18T01:24:37.246Z,90.96
2019-03-18T01:25:37.248Z,91.17
2019-03-18T01:26:37.260Z,91.36
2019-03-18T01:27:37.262Z,91.41
2019-03-18T01:28:37.324Z,91.68
2019-03-18T01:29:37.261Z,91.82
2019-03-18T01:30:37.248Z,91.92
2019-03-18T01:31:37.248Z,92.16
2019-03-18T01:32:37.327Z,92.16
2019-03-18T01:33:37.333Z,92.08
2019-03-18T01:34:37.266Z,92.01
2019-03-18T01:35:39.815Z,92.01
2019-03-18T01:36:37.264Z,92.16
2019-03-18T01:37:37.325Z,92.27
2019-03-18T01:38:37.278Z,92.38
2019-03-18T01:39:37.330Z,92.32
2019-03-18T01:40:37.256Z,92.16
2019-03-18T01:41:37.327Z,92.05
2019-03-18T01:42:37.267Z,92.03
2019-03-18T01:43:37.336Z,91.92
2019-03-18T01:44:37.333Z,91.82
2019-03-18T01:45:40.915Z,91.92
2019-03-18T01:46:37.256Z,91.92
2019-03-18T01:47:37.328Z,91.97
2019-03-18T01:48:37.337Z,91.97
2019-03-18T01:49:37.326Z,91.82
2019-03-18T01:50:37.251Z,91.73
2019-03-18T01:51:37.260Z,91.47
2019-03-18T01:52:37.249Z,91.25
2019-03-18T01:53:37.329Z,91.25
2019-03-18T01:54:37.260Z,90.90
2019-03-18T01:55:37.273Z,90.90
2019-03-18T01:56:37.326Z,90.77
2019-03-18T01:57:37.262Z,90.69
2019-03-18T01:58:37.352Z,90.63
2019-03-18T01:59:37.340Z,90.55
2019-03-18T02:00:37.350Z,90.63
2019-03-18T02:01:37.280Z,90.85
2019-03-18T02:02:37.341Z,91.01
2019-03-18T02:03:37.271Z,91.28
2019-03-18T02:04:37.272Z,91.41
2019-03-18T02:05:37.338Z,91.41
2019-03-18T02:06:37.274Z,91.36
2019-03-18T02:07:37.271Z,91.33
2019-03-18T02:08:37.276Z,91.38
2019-03-18T02:09:37.347Z,91.22
2019-03-18T02:10:37.297Z,91.01
2019-03-18T02:11:37.279Z,90.96
2019-03-18T02:12:37.276Z,90.90
2019-03-18T02:13:37.315Z,90.88
2019-03-18T02:14:37.348Z,90.63
2019-03-18T02:15:37.363Z,90.66
2019-03-18T02:16:37.358Z,90.63
2019-03-18T02:17:37.282Z,90.34
2019-03-18T02:18:37.355Z,89.97
2019-03-18T02:19:37.350Z,89.40
2019-03-18T02:20:37.294Z,89.45
2019-03-18T02:21:37.316Z,89.24
2019-03-18T02:22:37.366Z,88.97
2019-03-18T02:23:37.284Z,88.68
2019-03-18T02:24:37.356Z,88.52
2019-03-18T02:25:37.301Z,88.60
2019-03-18T02:26:37.433Z,88.46
2019-03-18T02:27:37.382Z,88.52
2019-03-18T02:28:37.366Z,88.50
2019-03-18T02:29:37.290Z,88.46
2019-03-18T02:30:37.295Z,88.31
2019-03-18T02:31:37.298Z,88.01
2019-03-18T02:32:37.355Z,87.85
2019-03-18T02:33:37.269Z,87.72
2019-03-18T02:34:37.304Z,87.56
2019-03-18T02:35:37.239Z,87.43
2019-03-18T02:36:37.352Z,87.40
2019-03-18T02:37:37.257Z,87.32
2019-03-18T02:38:37.371Z,87.32
2019-03-18T02:39:37.267Z,87.45
2019-03-18T02:40:37.309Z,87.21
2019-03-18T02:41:37.378Z,87.05
2019-03-18T02:42:37.319Z,87.02
2019-03-18T02:43:37.380Z,87.10
2019-03-18T02:44:37.337Z,87.21
2019-03-18T02:45:37.320Z,87.43
2019-03-18T02:46:37.313Z,87.59
2019-03-18T02:47:37.311Z,87.61
2019-03-18T02:48:37.338Z,87.45
2019-03-18T02:49:37.321Z,87.45
2019-03-18T02:50:37.334Z,87.29
2019-03-18T02:51:37.307Z,87.24
2019-03-18T02:52:37.378Z,87.05
2019-03-18T02:53:37.385Z,86.60
2019-03-18T02:54:37.327Z,86.15
2019-03-18T02:55:37.312Z,86.12
2019-03-18T02:56:37.383Z,86.17
2019-03-18T02:57:37.392Z,86.36
2019-03-18T02:58:37.380Z,86.49
2019-03-18T02:59:37.374Z,86.36
2019-03-18T03:00:37.326Z,86.30
2019-03-18T03:01:37.367Z,85.99
2019-03-18T03:02:37.366Z,85.88
2019-03-18T03:03:37.510Z,85.93
2019-03-18T03:04:37.363Z,85.93
2019-03-18T03:05:37.366Z,86.12
2019-03-18T03:06:37.305Z,86.12
2019-03-18T03:07:37.317Z,86.28
2019-03-18T03:08:37.306Z,86.41
2019-03-18T03:09:37.243Z,86.12
2019-03-18T03:10:37.340Z,86.07
2019-03-18T03:11:37.248Z,86.04
2019-03-18T03:12:37.296Z,86.09
2019-03-18T03:13:37.374Z,86.04
2019-03-18T03:14:37.341Z,85.96
2019-03-18T03:15:37.303Z,85.88
2019-03-18T03:16:37.259Z,85.83
2019-03-18T03:17:37.345Z,85.72
2019-03-18T03:18:37.323Z,85.80
2019-03-18T03:19:37.392Z,85.93
2019-03-18T03:20:37.323Z,85.83
2019-03-18T03:21:37.390Z,85.61
2019-03-18T03:22:37.396Z,85.75
2019-03-18T03:23:37.391Z,85.83
2019-03-18T03:24:37.321Z,85.88
2019-03-18T03:25:37.389Z,85.99
2019-03-18T03:26:37.389Z,85.91
2019-03-18T03:27:37.406Z,85.75
2019-03-18T03:28:37.395Z,85.66
2019-03-18T03:29:37.405Z,85.53
2019-03-18T03:30:37.341Z,85.48
2019-03-18T03:31:37.355Z,85.58
2019-03-18T03:32:37.373Z,85.61
2019-03-18T03:33:37.422Z,85.91
2019-03-18T03:34:37.414Z,85.83
2019-03-18T03:35:37.412Z,85.66
2019-03-18T03:36:37.389Z,85.40
2019-03-18T03:37:37.403Z,85.64
2019-03-18T03:38:37.348Z,85.75
2019-03-18T03:39:37.341Z,85.85
2019-03-18T03:40:37.412Z,85.88
2019-03-18T03:41:37.484Z,85.93
2019-03-18T03:42:37.440Z,85.83
2019-03-18T03:43:37.348Z,85.53
2019-03-18T03:44:37.342Z,85.46
2019-03-18T03:45:37.345Z,85.32
2019-03-18T03:46:43.465Z,85.27
2019-03-18T03:47:37.351Z,85.16
2019-03-18T03:48:37.364Z,85.08
2019-03-18T03:49:37.346Z,84.71
2019-03-18T03:50:37.410Z,84.47
2019-03-18T03:51:37.342Z,84.42
2019-03-18T03:52:37.345Z,84.36
2019-03-18T03:53:37.414Z,84.39
2019-03-18T03:54:37.365Z,84.34
2019-03-18T03:55:37.410Z,84.31
2019-03-18T03:56:37.354Z,84.50
2019-03-18T03:57:37.415Z,84.71
2019-03-18T03:58:37.359Z,84.71
2019-03-18T03:59:37.419Z,84.79
2019-03-18T04:00:37.294Z,84.76
2019-03-18T04:01:37.364Z,84.74
2019-03-18T04:02:37.418Z,84.79
2019-03-18T04:03:38.883Z,84.81
2019-03-18T04:04:37.372Z,84.81
2019-03-18T04:05:37.375Z,84.89
2019-03-18T04:06:37.303Z,85.00
2019-03-18T04:07:37.300Z,84.89
2019-03-18T04:08:37.310Z,84.66
2019-03-18T04:09:37.369Z,84.23
2019-03-18T04:10:37.495Z,84.28
2019-03-18T04:11:37.359Z,84.52
2019-03-18T04:12:37.446Z,84.50
2019-03-18T04:13:37.351Z,84.52
2019-03-18T04:14:37.425Z,84.79
2019-03-18T04:15:37.369Z,85.00
2019-03-18T04:16:37.432Z,84.89
2019-03-18T04:17:37.431Z,85.30
2019-03-18T04:18:37.367Z,85.50
2019-03-18T04:19:37.381Z,86.04
2019-03-18T04:20:37.455Z,87.00
2019-03-18T04:21:37.400Z,87.64
2019-03-18T04:22:37.447Z,88.15
2019-03-18T04:23:37.393Z,88.62
2019-03-18T04:24:37.443Z,89.40
2019-03-18T04:25:37.403Z,90.13
2019-03-18T04:26:37.460Z,90.53
2019-03-18T04:27:37.450Z,90.88
2019-03-18T04:28:37.381Z,91.44
2019-03-18T04:29:37.373Z,91.84
2019-03-18T04:30:37.375Z,92.22
2019-03-18T04:31:37.449Z,92.51
2019-03-18T04:32:37.478Z,92.86
2019-03-18T04:33:39.174Z,93.13
2019-03-18T04:34:37.452Z,93.35
2019-03-18T04:35:37.450Z,93.56
2019-03-18T04:36:37.453Z,93.83
2019-03-18T04:37:37.460Z,94.10
2019-03-18T04:38:37.390Z,94.42
2019-03-18T04:39:37.455Z,94.64
2019-03-18T04:40:37.441Z,94.83
2019-03-18T04:41:37.452Z,95.18
2019-03-18T04:42:37.389Z,95.50
2019-03-18T04:43:37.466Z,95.85
2019-03-18T04:44:37.383Z,96.15
2019-03-18T04:45:37.454Z,96.47
2019-03-18T04:46:37.455Z,96.83
2019-03-18T04:47:37.459Z,97.07
2019-03-18T04:48:37.395Z,97.34
2019-03-18T04:49:37.407Z,97.53
2019-03-18T04:50:37.516Z,97.77
2019-03-18T04:51:37.543Z,98.02
2019-03-18T04:52:37.485Z,98.23
2019-03-18T04:53:37.408Z,98.45
2019-03-18T04:54:37.397Z,98.64
2019-03-18T04:55:37.463Z,98.96
2019-03-18T04:56:37.465Z,99.26
2019-03-18T04:57:37.410Z,99.45
2019-03-18T04:58:37.474Z,99.67
2019-03-18T04:59:37.492Z,99.86
2019-03-18T05:00:37.398Z,99.99
2019-03-18T05:01:37.402Z,99.99
2019-03-18T05:02:37.414Z,99.99
2019-03-18T05:03:37.409Z,99.99
2019-03-18T05:04:37.474Z,99.99
2019-03-18T05:05:37.465Z,99.99
2019-03-18T05:06:37.458Z,99.99
2019-03-18T05:07:37.472Z,99.99
2019-03-18T05:08:37.444Z,99.99
2019-03-18T05:10:37.413Z,99.99
2019-03-18T05:11:37.467Z,99.99
2019-03-18T05:12:37.403Z,99.99
2019-03-18T05:13:37.503Z,99.99
2019-03-18T05:14:37.533Z,99.99
2019-03-18T05:15:37.411Z,99.99
2019-03-18T05:16:37.403Z,99.99
2019-03-18T05:17:37.481Z,99.99
2019-03-18T05:18:37.479Z,99.99
2019-03-18T05:19:37.422Z,99.99
2019-03-18T05:20:37.547Z,99.99
2019-03-18T05:21:37.502Z,99.99
2019-03-18T05:22:37.490Z,99.99
2019-03-18T05:23:37.413Z,99.99
2019-03-18T05:24:37.487Z,99.99
2019-03-18T05:25:37.489Z,99.99
2019-03-18T05:26:37.422Z,99.99
2019-03-18T05:27:37.417Z,99.99
2019-03-18T05:28:37.417Z,99.99
2019-03-18T05:29:37.419Z,99.99
2019-03-18T05:30:37.490Z,99.99
2019-03-18T05:31:37.496Z,99.99
2019-03-18T05:32:37.495Z,99.99
2019-03-18T05:33:37.496Z,99.99
2019-03-18T05:34:37.497Z,99.99
2019-03-18T05:35:37.438Z,99.99
2019-03-18T05:36:37.382Z,99.99
2019-03-18T05:37:37.502Z,99.99
2019-03-18T05:38:37.492Z,99.99
2019-03-18T05:39:37.495Z,99.99
2019-03-18T05:40:37.500Z,99.99
2019-03-18T05:41:37.496Z,99.99
2019-03-18T05:42:37.502Z,99.99
2019-03-18T05:43:37.506Z,99.99
2019-03-18T05:44:37.503Z,99.99
2019-03-18T05:45:37.431Z,99.99
2019-03-18T05:46:37.497Z,99.99
2019-03-18T05:47:39.591Z,99.99
2019-03-18T05:48:37.446Z,99.99
2019-03-18T05:49:37.508Z,99.99
2019-03-18T05:50:37.433Z,99.99
2019-03-18T05:51:37.435Z,99.99
2019-03-18T05:52:37.455Z,99.99
2019-03-18T05:53:37.459Z,99.99
2019-03-18T05:54:37.453Z,99.99
2019-03-18T05:55:37.437Z,99.92
2019-03-18T05:56:37.437Z,99.75
2019-03-18T05:57:37.436Z,99.56
2019-03-18T05:58:37.506Z,99.26
2019-03-18T05:59:37.425Z,98.96
2019-03-18T06:00:37.496Z,98.69
2019-03-18T06:01:37.499Z,98.55
2019-03-18T06:02:37.488Z,98.42
2019-03-18T06:03:37.493Z,98.40
2019-03-18T06:04:37.500Z,98.34
2019-03-18T06:05:37.464Z,98.26
2019-03-18T06:06:37.411Z,98.26
2019-03-18T06:07:37.493Z,98.04
2019-03-18T06:08:37.437Z,97.91
2019-03-18T06:09:37.414Z,97.66
2019-03-18T06:10:37.419Z,97.45
2019-03-18T06:11:37.424Z,97.36
2019-03-18T06:12:37.387Z,97.36
2019-03-18T06:13:37.422Z,97.36
2019-03-18T06:14:37.470Z,97.31
2019-03-18T06:15:37.505Z,97.23
2019-03-18T06:16:37.411Z,97.10
2019-03-18T06:17:37.510Z,96.96
2019-03-18T06:18:37.412Z,96.88
2019-03-18T06:19:37.556Z,96.74
2019-03-18T06:20:37.453Z,96.77
2019-03-18T06:21:37.448Z,96.83
2019-03-18T06:22:37.441Z,96.88
2019-03-18T06:23:37.444Z,96.93
2019-03-18T06:24:37.522Z,96.93
2019-03-18T06:25:37.518Z,96.99
2019-03-18T06:26:37.520Z,97.04
2019-03-18T06:27:37.442Z,97.07
2019-03-18T06:28:37.520Z,97.18
2019-03-18T06:29:37.526Z,97.04
2019-03-18T06:30:37.458Z,96.93
2019-03-18T06:31:37.537Z,96.91
2019-03-18T06:32:37.528Z,96.96
2019-03-18T06:33:37.538Z,96.93
2019-03-18T06:34:37.530Z,96.69
2019-03-18T06:35:37.535Z,96.55
2019-03-18T06:36:37.541Z,96.53
2019-03-18T06:37:37.471Z,96.55
2019-03-18T06:38:37.532Z,96.58
2019-03-18T06:39:37.448Z,96.66
2019-03-18T06:40:37.440Z,96.69
2019-03-18T06:41:37.453Z,96.58
2019-03-18T06:42:37.503Z,96.55
2019-03-18T06:43:37.491Z,96.47
2019-03-18T06:44:37.529Z,96.39
2019-03-18T06:45:37.527Z,96.23
2019-03-18T06:46:37.444Z,96.09
2019-03-18T06:47:37.535Z,95.94
2019-03-18T06:48:37.480Z,95.77
2019-03-18T06:49:37.501Z,95.58
2019-03-18T06:50:37.472Z,95.53
2019-03-18T06:51:37.543Z,95.61
2019-03-18T06:52:37.435Z,95.45
2019-03-18T06:53:40.090Z,95.37
2019-03-18T06:54:37.545Z,95.31
2019-03-18T06:55:37.550Z,95.31
2019-03-18T06:56:37.547Z,95.28
2019-03-18T06:57:37.479Z,95.20
2019-03-18T06:58:37.496Z,95.10
2019-03-18T06:59:37.548Z,95.01
2019-03-18T07:00:37.482Z,94.80
2019-03-18T07:01:37.486Z,94.59
2019-03-18T07:02:37.564Z,94.37
2019-03-18T07:03:37.486Z,94.31
2019-03-18T07:04:37.560Z,94.29
2019-03-18T07:05:37.485Z,94.18
2019-03-18T07:06:37.551Z,94.12
2019-03-18T07:07:37.484Z,94.02
2019-03-18T07:08:37.484Z,94.07
2019-03-18T07:09:37.490Z,94.04
2019-03-18T07:10:37.549Z,93.99
2019-03-18T07:11:37.475Z,93.89
2019-03-18T07:12:37.462Z,93.91
2019-03-18T07:13:37.483Z,94.04
2019-03-18T07:14:37.487Z,94.26
2019-03-18T07:15:37.559Z,94.42
2019-03-18T07:16:37.482Z,94.37
2019-03-18T07:17:37.554Z,94.34
2019-03-18T07:18:37.550Z,94.42
2019-03-18T07:19:37.479Z,94.48
2019-03-18T07:20:37.573Z,94.42
2019-03-18T07:21:37.501Z,94.18
2019-03-18T07:22:37.496Z,93.91
2019-03-18T07:23:37.567Z,93.89
2019-03-18T07:24:37.498Z,93.85
2019-03-18T07:25:37.508Z,93.78
2019-03-18T07:26:37.498Z,93.85
2019-03-18T07:27:37.581Z,93.85
2019-03-18T07:28:37.566Z,93.81
2019-03-18T07:29:37.591Z,93.75
2019-03-18T07:30:37.503Z,93.64
2019-03-18T07:31:37.585Z,93.67
2019-03-18T07:32:37.503Z,93.75
2019-03-18T07:33:37.504Z,93.54
2019-03-18T07:34:37.512Z,93.35
2019-03-18T07:35:37.513Z,93.13
2019-03-18T07:36:37.625Z,93.13
2019-03-18T07:37:37.550Z,93.24
2019-03-18T07:38:37.578Z,93.05
2019-03-18T07:39:37.574Z,92.84
2019-03-18T07:40:37.654Z,92.78
2019-03-18T07:41:37.579Z,92.38
2019-03-18T07:42:37.586Z,92.38
2019-03-18T07:43:37.583Z,92.49
2019-03-18T07:44:37.512Z,92.57
2019-03-18T07:45:37.580Z,92.76
2019-03-18T07:46:37.515Z,93.13
2019-03-18T07:47:37.515Z,93.26
2019-03-18T07:48:37.511Z,93.08
2019-03-18T07:49:37.647Z,92.81
2019-03-18T07:50:37.461Z,92.73
2019-03-18T07:51:37.486Z,92.57
2019-03-18T07:52:37.486Z,92.16
2019-03-18T07:53:37.476Z,91.90
2019-03-18T07:54:37.576Z,91.73
2019-03-18T07:55:37.565Z,91.95
2019-03-18T07:56:37.570Z,92.27
2019-03-18T07:57:37.460Z,92.40
2019-03-18T07:58:37.581Z,92.65
2019-03-18T07:59:37.493Z,92.32
2019-03-18T08:00:37.628Z,92.38
2019-03-18T08:01:37.594Z,92.30
2019-03-18T08:02:37.539Z,92.30
2019-03-18T08:03:37.537Z,92.35
2019-03-18T08:04:38.238Z,92.30
2019-03-18T08:05:37.525Z,91.60
2019-03-18T08:06:37.596Z,91.60
2019-03-18T08:07:37.596Z,91.57
2019-03-18T08:08:37.673Z,91.41
2019-03-18T08:09:37.605Z,91.57
2019-03-18T08:10:37.595Z,91.49
2019-03-18T08:11:37.532Z,91.33
2019-03-18T08:12:37.597Z,91.14
2019-03-18T08:13:37.531Z,91.14
2019-03-18T08:14:37.532Z,91.20
2019-03-18T08:15:37.602Z,91.25
2019-03-18T08:16:37.562Z,91.28
2019-03-18T08:17:37.536Z,90.98
2019-03-18T08:18:43.321Z,90.47
2019-03-18T08:19:37.534Z,89.86
2019-03-18T08:20:37.586Z,89.72
2019-03-18T08:21:37.582Z,89.78
2019-03-18T08:22:37.507Z,89.59
2019-03-18T08:23:37.599Z,89.27
2019-03-18T08:24:37.597Z,89.03
2019-03-18T08:25:37.500Z,89.08
2019-03-18T08:26:37.479Z,88.60
2019-03-18T08:27:37.653Z,88.17
2019-03-18T08:28:37.497Z,87.34
2019-03-18T08:29:37.608Z,86.68
2019-03-18T08:30:37.616Z,86.38
2019-03-18T08:31:37.714Z,86.04
2019-03-18T08:32:37.617Z,86.09
2019-03-18T08:33:37.639Z,86.38
2019-03-18T08:34:37.560Z,86.41
2019-03-18T08:35:37.547Z,86.79
2019-03-18T08:36:37.547Z,87.05
2019-03-18T08:37:37.619Z,86.12
2019-03-18T08:38:37.628Z,85.83
2019-03-18T08:39:37.615Z,85.50
2019-03-18T08:40:37.622Z,84.87
2019-03-18T08:41:37.553Z,84.89
2019-03-18T08:42:37.623Z,85.03
2019-03-18T08:43:37.625Z,84.66
2019-03-18T08:44:40.361Z,84.97
2019-03-18T08:45:37.553Z,85.24
2019-03-18T08:46:37.553Z,84.52
2019-03-18T08:47:37.626Z,84.74
2019-03-18T08:48:37.583Z,84.02
2019-03-18T08:49:37.570Z,84.20
2019-03-18T08:50:37.532Z,83.65
2019-03-18T08:51:37.580Z,83.94
2019-03-18T08:52:37.633Z,84.50
2019-03-18T08:53:37.485Z,84.17
2019-03-18T08:54:37.550Z,84.02
2019-03-18T08:55:37.492Z,84.09
2019-03-18T08:56:37.487Z,83.67
2019-03-18T08:57:37.587Z,83.86
2019-03-18T08:58:37.583Z,84.09
2019-03-18T08:59:37.512Z,83.78
2019-03-18T09:00:37.603Z,84.23
2019-03-18T09:01:37.567Z,82.88
2019-03-18T09:02:37.640Z,82.19
2019-03-18T09:03:37.638Z,82.16
2019-03-18T09:04:37.533Z,82.82
2019-03-18T09:05:37.588Z,82.27
2019-03-18T09:06:37.575Z,82.14
2019-03-18T09:07:37.567Z,81.84
2019-03-18T09:08:37.641Z,81.13
2019-03-18T09:09:37.638Z,82.19
2019-03-18T09:10:37.559Z,82.90
2019-03-18T09:11:37.638Z,82.69
2019-03-18T09:12:37.633Z,82.45
2019-03-18T09:13:37.561Z,82.53
2019-03-18T09:14:37.549Z,83.12
2019-03-18T09:15:37.637Z,83.36
2019-03-18T09:16:37.576Z,83.59
2019-03-18T09:17:37.567Z,84.05
2019-03-18T09:18:37.569Z,83.73
2019-03-18T09:19:37.565Z,81.87
2019-03-18T09:20:37.544Z,81.63
2019-03-18T09:21:37.647Z,81.34
2019-03-18T09:22:37.656Z,81.08
2019-03-18T09:23:37.649Z,81.37
2019-03-18T09:24:37.651Z,82.08
2019-03-18T09:25:37.585Z,81.71
2019-03-18T09:26:37.583Z,79.97
2019-03-18T09:27:37.659Z,80.33
2019-03-18T09:28:37.677Z,80.84
2019-03-18T09:29:37.584Z,81.32
2019-03-18T09:30:37.687Z,80.49
2019-03-18T09:31:37.657Z,80.52
2019-03-18T09:32:37.598Z,80.39
2019-03-18T09:33:37.595Z,80.05
2019-03-18T09:34:37.664Z,80.65
2019-03-18T09:35:37.677Z,80.63
2019-03-18T09:36:37.667Z,80.36
2019-03-18T09:37:37.657Z,80.23
2019-03-18T09:38:37.597Z,78.97
2019-03-18T09:39:37.662Z,79.31
2019-03-18T09:40:37.671Z,77.70
2019-03-18T09:41:37.556Z,78.17
2019-03-18T09:42:37.626Z,78.81
2019-03-18T09:43:37.664Z,78.97
2019-03-18T09:44:37.611Z,78.62
2019-03-18T09:45:37.731Z,79.33
2019-03-18T09:46:37.600Z,78.20
2019-03-18T09:47:37.598Z,77.86
2019-03-18T09:48:37.599Z,78.23
2019-03-18T09:49:37.676Z,78.20
2019-03-18T09:50:37.689Z,77.47
2019-03-18T09:51:37.559Z,77.67
2019-03-18T09:52:37.626Z,78.54
2019-03-18T09:53:37.811Z,78.62
2019-03-18T09:54:37.665Z,78.05
2019-03-18T09:55:37.616Z,77.33
2019-03-18T09:56:37.615Z,76.70
2019-03-18T09:57:37.577Z,76.54
2019-03-18T09:58:37.635Z,76.02
2019-03-18T09:59:37.596Z,75.23
2019-03-18T10:00:37.621Z,74.21
2019-03-18T10:01:37.676Z,74.26
2019-03-18T10:02:37.689Z,73.97
2019-03-18T10:03:37.692Z,74.44
2019-03-18T10:04:37.672Z,73.22
2019-03-18T10:05:37.621Z,73.63
2019-03-18T10:06:37.681Z,73.45
2019-03-18T10:07:37.614Z,72.85
2019-03-18T10:08:37.619Z,70.79
2019-03-18T10:09:37.682Z,70.19
2019-03-18T10:10:37.501Z,71.05
2019-03-18T10:11:37.556Z,70.32
2019-03-18T10:12:37.531Z,70.35
2019-03-18T10:13:37.531Z,71.31
2019-03-18T10:14:37.624Z,71.73
2019-03-18T10:15:37.557Z,72.46
2019-03-18T10:16:37.574Z,73.06
2019-03-18T10:17:37.531Z,72.01
2019-03-18T10:18:37.629Z,72.95
2019-03-18T10:19:37.506Z,72.77
2019-03-18T10:20:37.608Z,73.30
2019-03-18T10:21:37.575Z,74.21
2019-03-18T10:22:37.613Z,75.13
2019-03-18T10:23:37.684Z,75.34
2019-03-18T10:24:37.566Z,74.92
2019-03-18T10:25:37.625Z,75.39
2019-03-18T10:26:37.650Z,74.87
2019-03-18T10:27:38.001Z,74.63
2019-03-18T10:28:37.614Z,74.18
2019-03-18T10:29:37.662Z,72.95
2019-03-18T10:30:37.633Z,74.03
2019-03-18T10:31:37.703Z,73.58
2019-03-18T10:32:37.634Z,73.71
2019-03-18T10:33:37.704Z,73.48
2019-03-18T10:34:37.710Z,72.67
2019-03-18T10:35:37.733Z,72.67
2019-03-18T10:36:37.705Z,72.90
2019-03-18T10:37:37.710Z,72.43
2019-03-18T10:38:37.713Z,73.30
2019-03-18T10:39:37.707Z,72.43
2019-03-18T10:40:37.680Z,72.72
2019-03-18T10:41:37.688Z,73.50
2019-03-18T10:42:37.682Z,73.16
2019-03-18T10:43:37.648Z,73.22
2019-03-18T10:44:37.611Z,73.22
2019-03-18T10:45:37.645Z,72.28
2019-03-18T10:46:37.690Z,72.77
2019-03-18T10:47:37.610Z,72.41
2019-03-18T10:48:37.660Z,69.80
2019-03-18T10:49:46.204Z,71.42
2019-03-18T10:50:37.727Z,70.79
2019-03-18T10:51:37.715Z,69.85
2019-03-18T10:52:37.714Z,69.98
2019-03-18T10:53:37.760Z,69.05
2019-03-18T10:54:37.676Z,68.91
2019-03-18T10:55:37.721Z,68.71
2019-03-18T10:56:37.650Z,67.39
2019-03-18T10:57:37.720Z,68.06
2019-03-18T10:58:37.618Z,66.95
2019-03-18T10:59:37.664Z,66.79
2019-03-18T11:00:37.704Z,67.44
2019-03-18T11:01:37.711Z,67.93
2019-03-18T11:02:37.720Z,69.15
2019-03-18T11:03:38.959Z,68.45
2019-03-18T11:04:37.669Z,66.01
2019-03-18T11:05:37.642Z,67.33
2019-03-18T11:06:37.720Z,69.34
2019-03-18T11:07:37.645Z,69.30
2019-03-18T11:08:37.627Z,70.04
2019-03-18T11:09:37.713Z,70.97
2019-03-18T11:10:37.741Z,71.13
2019-03-18T11:11:37.701Z,69.57
2019-03-18T11:12:37.727Z,70.56
2019-03-18T11:13:37.728Z,70.37
2019-03-18T11:14:37.625Z,69.88
2019-03-18T11:15:37.743Z,70.48
2019-03-18T11:16:37.669Z,71.07
2019-03-18T11:17:37.662Z,71.31
2019-03-18T11:18:37.733Z,71.15
2019-03-18T11:19:37.662Z,70.09
2019-03-18T11:20:37.634Z,69.93
2019-03-18T11:21:37.676Z,68.97
2019-03-18T11:22:37.630Z,68.91
2019-03-18T11:23:37.642Z,68.40
2019-03-18T11:24:37.629Z,68.32
2019-03-18T11:25:37.670Z,67.52
2019-03-18T11:26:37.685Z,67.18
2019-03-18T11:27:37.640Z,65.68
2019-03-18T11:28:37.716Z,65.86
2019-03-18T11:29:37.634Z,65.42
2019-03-18T11:30:37.739Z,65.42
2019-03-18T11:31:37.739Z,64.34
2019-03-18T11:32:37.703Z,65.22
2019-03-18T11:33:37.783Z,64.80
2019-03-18T11:34:37.681Z,64.62
2019-03-18T11:35:37.765Z,64.93
2019-03-18T11:36:37.745Z,64.59
2019-03-18T11:37:37.751Z,62.61
2019-03-18T11:38:37.678Z,62.10
2019-03-18T11:39:37.748Z,62.38
2019-03-18T11:40:37.743Z,61.82
2019-03-18T11:41:38.479Z,62.50
2019-03-18T11:42:37.747Z,61.58
2019-03-18T11:43:37.688Z,61.63
2019-03-18T11:44:37.684Z,62.14
2019-03-18T11:45:37.749Z,62.61
2019-03-18T11:46:40.456Z,63.35
2019-03-18T11:47:37.682Z,61.82
2019-03-18T11:48:37.760Z,62.02
2019-03-18T11:49:39.934Z,63.74
2019-03-18T11:50:37.607Z,64.75
2019-03-18T11:51:37.613Z,65.96
2019-03-18T11:52:37.619Z,65.65
2019-03-18T11:53:37.704Z,66.35
2019-03-18T11:54:37.603Z,67.72
2019-03-18T11:55:37.677Z,68.32
2019-03-18T11:56:37.636Z,68.99
2019-03-18T11:57:37.676Z,67.72
2019-03-18T11:58:37.710Z,67.28
2019-03-18T11:59:37.713Z,66.69
2019-03-18T12:00:37.628Z,66.20
2019-03-18T12:01:37.737Z,67.80
2019-03-18T12:02:37.667Z,66.61
2019-03-18T12:03:37.671Z,63.95
2019-03-18T12:04:37.698Z,65.01
2019-03-18T12:05:37.660Z,65.68
2019-03-18T12:06:37.706Z,66.25
2019-03-18T12:07:37.707Z,64.42
2019-03-18T12:08:37.723Z,64.08
2019-03-18T12:09:37.664Z,64.44
2019-03-18T12:10:37.854Z,64.75
2019-03-18T12:11:37.704Z,64.85
2019-03-18T12:12:37.712Z,64.70
2019-03-18T12:13:37.781Z,64.29
2019-03-18T12:14:37.767Z,64.54
2019-03-18T12:15:37.707Z,64.42
2019-03-18T12:16:37.780Z,63.23
2019-03-18T12:17:37.707Z,63.87
2019-03-18T12:18:37.788Z,64.38
2019-03-18T12:19:37.780Z,64.57
2019-03-18T12:20:37.649Z,63.49
2019-03-18T12:21:37.709Z,62.35
2019-03-18T12:22:37.722Z,61.53
2019-03-18T12:23:37.725Z,62.74
2019-03-18T12:24:37.678Z,62.07
2019-03-18T12:25:37.643Z,62.35
2019-03-18T12:26:37.764Z,62.38
2019-03-18T12:27:37.746Z,63.69
2019-03-18T12:28:37.807Z,64.00
2019-03-18T12:29:37.660Z,64.54
2019-03-18T12:30:37.872Z,63.20
2019-03-18T12:31:37.715Z,62.20
2019-03-18T12:32:37.806Z,61.63
2019-03-18T12:33:37.786Z,61.61
2019-03-18T12:34:37.795Z,61.84
2019-03-18T12:35:37.792Z,60.33
2019-03-18T12:36:37.720Z,60.99
2019-03-18T12:37:37.722Z,59.71
2019-03-18T12:38:37.789Z,60.22
2019-03-18T12:39:37.734Z,59.37
2019-03-18T12:40:37.732Z,59.30
2019-03-18T12:41:37.689Z,59.53
2019-03-18T12:42:37.747Z,59.94
2019-03-18T12:43:37.766Z,59.07
2019-03-18T12:44:37.788Z,59.81
2019-03-18T12:45:37.669Z,58.74
2019-03-18T12:46:37.850Z,58.59
2019-03-18T12:47:37.741Z,60.05
2019-03-18T12:48:37.749Z,59.84
2019-03-18T12:49:37.701Z,59.37
2019-03-18T12:50:54.555Z,58.84
2019-03-18T12:51:37.747Z,58.94
2019-03-18T12:52:37.733Z,59.00
2019-03-18T12:53:37.733Z,59.97